Wetterstation Vordersexau
Wetterdaten: Woche 06.07.15 - 12.07.15 (KW28)
Datum Zeit Temp. A. Feuchte A. Luftdruck Regen Wind Richtung Taupunkt Windchill Windben
06.07.2015 00:00 26,1 C 58 % 1016,7 hPa 0,0 l/m 0,0 km/h N-NO 17,2 C 26,1 C 0,0 km/h
06.07.2015 01:00 24,7 C 63 % 1017,1 hPa 0,0 l/m 0,0 km/h N-NW 17,2 C 24,7 C 0,0 km/h
06.07.2015 02:00 24,2 C 67 % 1017,9 hPa 0,0 l/m 0,0 km/h NW 17,7 C 24,2 C 0,0 km/h
06.07.2015 03:00 23,1 C 66 % 1018,3 hPa 0,0 l/m 0,0 km/h N-NO 16,4 C 23,1 C 0,0 km/h
06.07.2015 04:00 22,4 C 65 % 1019,1 hPa 0,0 l/m 0,0 km/h N-NO 15,5 C 22,4 C 0,0 km/h
06.07.2015 05:00 20,8 C 66 % 1019,9 hPa 0,0 l/m 0,0 km/h N-NW 14,2 C 20,8 C 0,0 km/h
06.07.2015 06:00 20,3 C 67 % 1020,2 hPa 0,0 l/m 0,0 km/h N-NO 14,0 C 20,3 C 0,0 km/h
06.07.2015 07:00 21,6 C 64 % 1020,2 hPa 0,0 l/m 0,0 km/h NO 14,5 C 21,6 C 0,0 km/h
06.07.2015 08:00 23,5 C 62 % 1020,2 hPa 0,0 l/m 11,0 km/h NO 15,8 C 22,3 C 6,1 km/h
06.07.2015 09:00 27,0 C 46 % 1020,2 hPa 0,0 l/m 4,5 km/h NW 14,4 C 27,0 C 2,5 km/h
06.07.2015 10:00 29,2 C 46 % 1020,0 hPa 0,0 l/m 0,0 km/h NO 16,4 C 29,2 C 0,0 km/h
06.07.2015 11:00 29,5 C 43 % 1019,5 hPa 0,0 l/m 0,0 km/h NW 15,6 C 29,5 C 0,0 km/h
06.07.2015 12:00 29,6 C 44 % 1019,2 hPa 0,0 l/m 0,0 km/h W-NW 16,0 C 29,6 C 0,0 km/h
06.07.2015 13:00 31,1 C 42 % 1018,5 hPa 0,0 l/m 0,0 km/h W-NW 16,6 C 31,1 C 0,0 km/h
06.07.2015 14:00 33,0 C 39 % 1018,0 hPa 0,0 l/m 3,9 km/h W 17,2 C 33,0 C 2,2 km/h
06.07.2015 15:00 32,7 C 39 % 1017,5 hPa 0,0 l/m 2,6 km/h W 16,9 C 32,7 C 1,4 km/h
06.07.2015 16:00 33,9 C 35 % 1016,9 hPa 0,0 l/m 9,7 km/h NO 16,2 C 33,9 C 5,4 km/h
06.07.2015 17:00 38,2 C 30 % 1016,2 hPa 0,0 l/m 0,0 km/h NO 17,5 C 38,2 C 0,0 km/h
06.07.2015 18:00 37,3 C 30 % 1015,9 hPa 0,0 l/m 0,0 km/h W-SW 16,8 C 37,3 C 0,0 km/h
06.07.2015 19:00 30,9 C 39 % 1015,7 hPa 0,0 l/m 0,0 km/h N-NO 15,3 C 30,9 C 0,0 km/h
06.07.2015 20:00 27,3 C 48 % 1015,6 hPa 0,0 l/m 0,0 km/h NO 15,3 C 27,3 C 0,0 km/h
06.07.2015 21:00 22,9 C 60 % 1015,6 hPa 0,0 l/m 0,0 km/h SO 14,7 C 22,9 C 0,0 km/h
06.07.2015 22:00 21,3 C 67 % 1015,4 hPa 0,0 l/m 0,0 km/h SO 14,9 C 21,3 C 0,0 km/h
06.07.2015 23:00 20,4 C 70 % 1015,3 hPa 0,0 l/m 0,0 km/h O-NO 14,7 C 20,4 C 0,0 km/h
07.07.2015 00:00 19,6 C 72 % 1014,9 hPa 0,0 l/m 0,0 km/h O-NO 14,4 C 19,6 C 0,0 km/h
07.07.2015 01:00 18,6 C 75 % 1014,5 hPa 0,0 l/m 0,0 km/h O-NO 14,1 C 18,6 C 0,0 km/h
07.07.2015 02:00 17,9 C 78 % 1013,9 hPa 0,0 l/m 0,0 km/h O-NO 14,0 C 17,9 C 0,0 km/h
07.07.2015 03:00 17,1 C 79 % 1013,5 hPa 0,0 l/m 0,0 km/h NO 13,4 C 17,1 C 0,0 km/h
07.07.2015 04:00 16,6 C 81 % 1013,0 hPa 0,0 l/m 0,0 km/h NO 13,3 C 16,6 C 0,0 km/h
07.07.2015 05:00 16,4 C 81 % 1012,6 hPa 0,0 l/m 0,0 km/h NO 13,1 C 16,4 C 0,0 km/h
07.07.2015 06:00 18,5 C 81 % 1012,7 hPa 0,0 l/m 0,0 km/h NW 15,2 C 18,5 C 0,0 km/h
07.07.2015 07:00 22,2 C 76 % 1012,3 hPa 0,0 l/m 0,0 km/h NW 17,8 C 22,2 C 0,0 km/h
07.07.2015 08:00 29,8 C 52 % 1011,7 hPa 0,0 l/m 0,0 km/h S-SW 18,9 C 29,8 C 0,0 km/h
07.07.2015 09:00 31,1 C 48 % 1011,4 hPa 0,0 l/m 0,0 km/h W 18,8 C 31,1 C 0,0 km/h
07.07.2015 10:00 33,2 C 46 % 1011,0 hPa 0,0 l/m 0,0 km/h W-SW 20,0 C 33,2 C 0,0 km/h
07.07.2015 11:00 34,7 C 43 % 1010,8 hPa 0,0 l/m 21,4 km/h W-SW 20,2 C 34,7 C 11,9 km/h
07.07.2015 12:00 35,2 C 42 % 1010,2 hPa 0,0 l/m 23,3 km/h W-NW 20,3 C 35,2 C 13,0 km/h
07.07.2015 13:00 36,4 C 35 % 1009,7 hPa 0,0 l/m 24,0 km/h W 18,4 C 36,4 C 13,3 km/h
07.07.2015 14:00 37,8 C 31 % 1008,8 hPa 0,0 l/m 21,4 km/h W 17,7 C 37,8 C 11,9 km/h
07.07.2015 15:00 38,8 C 28 % 1007,8 hPa 0,0 l/m 22,7 km/h W 16,9 C 38,8 C 12,6 km/h
07.07.2015 16:00 40,3 C 22 % 1006,7 hPa 0,0 l/m 4,5 km/h W 14,4 C 40,3 C 2,5 km/h
07.07.2015 17:00 38,8 C 25 % 1006,9 hPa 0,0 l/m 7,1 km/h W 15,2 C 38,8 C 4,0 km/h
07.07.2015 18:00 34,7 C 34 % 1006,5 hPa 0,0 l/m 0,0 km/h W 16,5 C 34,7 C 0,0 km/h
07.07.2015 19:00 31,8 C 43 % 1005,6 hPa 0,0 l/m 3,2 km/h N-NO 17,6 C 31,8 C 1,8 km/h
07.07.2015 20:00 29,9 C 48 % 1006,2 hPa 0,0 l/m 21,4 km/h NO 17,7 C 28,9 C 11,9 km/h
07.07.2015 21:00 27,3 C 49 % 1008,4 hPa 0,0 l/m 1,3 km/h S-SO 15,6 C 27,3 C 0,7 km/h
07.07.2015 22:00 22,8 C 66 % 1009,2 hPa 0,4 l/m 4,5 km/h SO 16,1 C 22,8 C 2,5 km/h
07.07.2015 23:00 20,9 C 78 % 1009,7 hPa 0,0 l/m 0,0 km/h SO 16,9 C 20,9 C 0,0 km/h
08.07.2015 00:00 20,5 C 81 % 1009,8 hPa 0,0 l/m 0,0 km/h SO 17,1 C 20,5 C 0,0 km/h
08.07.2015 01:00 21,3 C 70 % 1010,2 hPa 0,0 l/m 0,0 km/h W-NW 15,6 C 21,3 C 0,0 km/h
08.07.2015 02:00 21,4 C 69 % 1010,7 hPa 0,0 l/m 0,0 km/h W-NW 15,5 C 21,4 C 0,0 km/h
08.07.2015 03:00 21,3 C 70 % 1010,7 hPa 0,0 l/m 0,0 km/h W 15,6 C 21,3 C 0,0 km/h
08.07.2015 04:00 21,2 C 70 % 1009,9 hPa 0,0 l/m 10,4 km/h W 15,5 C 19,8 C 5,8 km/h
08.07.2015 05:00 21,6 C 68 % 1009,9 hPa 0,0 l/m 9,7 km/h N 15,4 C 20,5 C 5,4 km/h
08.07.2015 06:00 19,3 C 74 % 1011,1 hPa 0,0 l/m 0,0 km/h SO 14,5 C 19,3 C 0,0 km/h
08.07.2015 07:00 18,1 C 79 % 1011,4 hPa 0,0 l/m 0,0 km/h NO 14,4 C 18,1 C 0,0 km/h
08.07.2015 08:00 18,6 C 77 % 1012,0 hPa 0,0 l/m 0,0 km/h N 14,5 C 18,6 C 0,0 km/h
08.07.2015 09:00 18,3 C 74 % 1012,8 hPa 0,0 l/m 0,0 km/h N-NO 13,6 C 18,3 C 0,0 km/h
08.07.2015 10:00 18,4 C 66 % 1013,6 hPa 0,0 l/m 0,0 km/h W-NW 11,9 C 18,4 C 0,0 km/h
08.07.2015 11:00 20,8 C 58 % 1013,6 hPa 0,0 l/m 0,0 km/h S-SO 12,2 C 20,8 C 0,0 km/h
08.07.2015 12:00 23,9 C 52 % 1013,3 hPa 0,0 l/m 6,5 km/h N-NO 13,4 C 23,9 C 3,6 km/h
08.07.2015 13:00 23,8 C 45 % 1013,0 hPa 0,0 l/m 0,0 km/h W-NW 11,1 C 23,8 C 0,0 km/h
08.07.2015 14:00 26,4 C 38 % 1012,7 hPa 0,0 l/m 11,7 km/h N-NW 10,9 C 25,4 C 6,5 km/h
08.07.2015 15:00 26,1 C 38 % 1012,9 hPa 0,0 l/m 1,3 km/h NW 10,7 C 26,1 C 0,7 km/h
08.07.2015 16:00 24,7 C 39 % 1013,1 hPa 0,0 l/m 2,6 km/h NW 9,8 C 24,7 C 1,4 km/h
08.07.2015 17:00 27,8 C 36 % 1013,1 hPa 0,0 l/m 8,4 km/h W-NW 11,3 C 27,5 C 4,7 km/h
08.07.2015 18:00 26,8 C 36 % 1013,3 hPa 0,0 l/m 1,9 km/h SW 10,5 C 26,8 C 1,1 km/h
08.07.2015 19:00 22,5 C 43 % 1013,6 hPa 0,0 l/m 18,8 km/h W-NW 9,3 C 19,6 C 10,4 km/h
08.07.2015 20:00 20,3 C 48 % 1013,9 hPa 0,0 l/m 3,2 km/h W-NW 8,9 C 20,3 C 1,8 km/h
08.07.2015 21:00 18,2 C 53 % 1014,5 hPa 0,0 l/m 0,0 km/h W-NW 8,5 C 18,2 C 0,0 km/h
08.07.2015 22:00 17,8 C 55 % 1015,2 hPa 0,0 l/m 0,0 km/h W-NW 8,6 C 17,8 C 0,0 km/h
08.07.2015 23:00 17,2 C 60 % 1015,6 hPa 0,0 l/m 0,0 km/h W-NW 9,4 C 17,2 C 0,0 km/h
09.07.2015 00:00 17,1 C 61 % 1016,0 hPa 0,0 l/m 0,0 km/h W-NW 9,5 C 17,1 C 0,0 km/h
09.07.2015 01:00 16,9 C 61 % 1015,9 hPa 0,0 l/m 0,0 km/h W-NW 9,3 C 16,9 C 0,0 km/h
09.07.2015 02:00 16,7 C 63 % 1015,9 hPa 0,0 l/m 0,0 km/h W-NW 9,6 C 16,7 C 0,0 km/h
09.07.2015 03:00 16,6 C 64 % 1015,7 hPa 0,0 l/m 1,9 km/h W 9,8 C 16,6 C 1,1 km/h
09.07.2015 04:00 16,0 C 67 % 1015,8 hPa 0,0 l/m 1,9 km/h W-SW 9,9 C 16,0 C 1,1 km/h
09.07.2015 05:00 16,2 C 67 % 1016,0 hPa 0,0 l/m 0,0 km/h W-NW 10,1 C 16,2 C 0,0 km/h
09.07.2015 06:00 16,4 C 68 % 1016,6 hPa 0,0 l/m 0,0 km/h W-NW 10,5 C 16,4 C 0,0 km/h
09.07.2015 07:00 17,1 C 68 % 1017,0 hPa 0,0 l/m 1,9 km/h W-NW 11,1 C 17,1 C 1,1 km/h
09.07.2015 08:00 17,6 C 64 % 1017,5 hPa 0,0 l/m 0,0 km/h NO 10,7 C 17,6 C 0,0 km/h
09.07.2015 09:00 17,8 C 62 % 1018,1 hPa 0,0 l/m 9,7 km/h NO 10,4 C 16,3 C 5,4 km/h
09.07.2015 10:00 18,9 C 60 % 1018,3 hPa 0,0 l/m 11,7 km/h NO 11,0 C 16,9 C 6,5 km/h
09.07.2015 11:00 23,6 C 47 % 1018,6 hPa 0,0 l/m 12,3 km/h S-SO 11,6 C 22,1 C 6,8 km/h
09.07.2015 12:00 22,5 C 48 % 1018,4 hPa 0,0 l/m 0,0 km/h NW 10,9 C 22,5 C 0,0 km/h
09.07.2015 13:00 22,8 C 46 % 1018,3 hPa 0,0 l/m 0,0 km/h W 10,6 C 22,8 C 0,0 km/h
09.07.2015 14:00 23,4 C 43 % 1018,4 hPa 0,0 l/m 1,3 km/h N-NO 10,1 C 23,4 C 0,7 km/h
09.07.2015 15:00 25,4 C 40 % 1018,6 hPa 0,0 l/m 5,2 km/h NO 10,8 C 25,4 C 2,9 km/h
09.07.2015 16:00 25,9 C 40 % 1018,6 hPa 0,0 l/m 0,6 km/h NO 11,3 C 25,9 C 0,4 km/h
09.07.2015 17:00 29,6 C 33 % 1018,6 hPa 0,0 l/m 2,6 km/h W-NW 11,6 C 29,6 C 1,4 km/h
09.07.2015 18:00 27,9 C 36 % 1018,7 hPa 0,0 l/m 2,6 km/h N 11,4 C 27,9 C 1,4 km/h
09.07.2015 19:00 22,6 C 44 % 1019,1 hPa 0,0 l/m 0,0 km/h N-NO 9,7 C 22,6 C 0,0 km/h
09.07.2015 20:00 19,6 C 51 % 1019,3 hPa 0,0 l/m 0,0 km/h SO 9,2 C 19,6 C 0,0 km/h
09.07.2015 21:00 15,5 C 62 % 1019,8 hPa 0,0 l/m 0,0 km/h SO 8,3 C 15,5 C 0,0 km/h
09.07.2015 22:00 13,8 C 67 % 1019,9 hPa 0,0 l/m 0,0 km/h O-SO 7,8 C 13,8 C 0,0 km/h
09.07.2015 23:00 13,1 C 75 % 1020,3 hPa 0,0 l/m 0,0 km/h O-SO 8,8 C 13,1 C 0,0 km/h
10.07.2015 00:00 11,8 C 76 % 1020,3 hPa 0,0 l/m 0,0 km/h O-SO 7,7 C 11,8 C 0,0 km/h
10.07.2015 01:00 11,1 C 79 % 1020,5 hPa 0,0 l/m 0,0 km/h O-NO 7,6 C 11,1 C 0,0 km/h
10.07.2015 02:00 10,8 C 81 % 1020,6 hPa 0,0 l/m 0,0 km/h O-NO 7,7 C 10,8 C 0,0 km/h
10.07.2015 03:00 9,6 C 81 % 1020,5 hPa 0,0 l/m 0,0 km/h O-NO 6,5 C 9,6 C 0,0 km/h
10.07.2015 04:00 8,9 C 82 % 1020,2 hPa 0,0 l/m 0,0 km/h O-NO 6,0 C 8,9 C 0,0 km/h
10.07.2015 05:00 7,9 C 83 % 1020,5 hPa 0,0 l/m 0,0 km/h NO 5,2 C 7,9 C 0,0 km/h
10.07.2015 06:00 9,1 C 84 % 1020,6 hPa 0,0 l/m 0,0 km/h N 6,5 C 9,1 C 0,0 km/h
10.07.2015 07:00 15,1 C 81 % 1020,8 hPa 0,0 l/m 0,0 km/h W 11,9 C 15,1 C 0,0 km/h
10.07.2015 08:00 21,9 C 55 % 1020,5 hPa 0,0 l/m 3,2 km/h W-NW 12,4 C 21,9 C 1,8 km/h
10.07.2015 09:00 23,9 C 51 % 1020,5 hPa 0,0 l/m 4,5 km/h SW 13,1 C 23,9 C 2,5 km/h
10.07.2015 10:00 25,6 C 46 % 1020,0 hPa 0,0 l/m 5,8 km/h NW 13,1 C 25,6 C 3,2 km/h
10.07.2015 11:00 26,2 C 43 % 1019,5 hPa 0,0 l/m 22,7 km/h W-NW 12,6 C 24,0 C 12,6 km/h
10.07.2015 12:00 26,2 C 41 % 1019,1 hPa 0,0 l/m 11,0 km/h N-NW 11,9 C 25,3 C 6,1 km/h
10.07.2015 13:00 27,4 C 38 % 1018,1 hPa 0,0 l/m 7,8 km/h W-NW 11,8 C 27,2 C 4,3 km/h
10.07.2015 14:00 29,6 C 36 % 1017,3 hPa 0,0 l/m 0,0 km/h NO 12,9 C 29,6 C 0,0 km/h
10.07.2015 15:00 29,4 C 36 % 1016,7 hPa 0,0 l/m 17,5 km/h NW 12,7 C 28,5 C 9,7 km/h
10.07.2015 16:00 30,2 C 33 % 1016,1 hPa 0,0 l/m 14,3 km/h N-NO 12,1 C 29,6 C 7,9 km/h
10.07.2015 17:00 31,9 C 31 % 1015,5 hPa 0,0 l/m 7,1 km/h NO 12,6 C 31,9 C 4,0 km/h
10.07.2015 18:00 31,9 C 31 % 1015,2 hPa 0,0 l/m 25,3 km/h W-NW 12,6 C 31,5 C 14,0 km/h
10.07.2015 19:00 26,4 C 38 % 1015,3 hPa 0,0 l/m 0,0 km/h NW 10,9 C 26,4 C 0,0 km/h
10.07.2015 20:00 23,2 C 44 % 1015,5 hPa 0,0 l/m 0,0 km/h NW 10,3 C 23,2 C 0,0 km/h
10.07.2015 21:00 18,5 C 55 % 1015,7 hPa 0,0 l/m 0,0 km/h SO 9,3 C 18,5 C 0,0 km/h
10.07.2015 22:00 16,6 C 65 % 1015,5 hPa 0,0 l/m 0,0 km/h NO 10,0 C 16,6 C 0,0 km/h
10.07.2015 23:00 15,1 C 71 % 1015,7 hPa 0,0 l/m 0,0 km/h O 9,9 C 15,1 C 0,0 km/h
11.07.2015 00:00 13,3 C 73 % 1015,5 hPa 0,0 l/m 0,0 km/h NO 8,6 C 13,3 C 0,0 km/h
11.07.2015 01:00 12,6 C 77 % 1014,8 hPa 0,0 l/m 0,0 km/h O-SO 8,7 C 12,6 C 0,0 km/h
11.07.2015 02:00 11,4 C 80 % 1014,8 hPa 0,0 l/m 0,0 km/h O-NO 8,1 C 11,4 C 0,0 km/h
11.07.2015 03:00 11,5 C 79 % 1014,4 hPa 0,0 l/m 0,0 km/h NO 8,0 C 11,5 C 0,0 km/h
11.07.2015 04:00 11,4 C 80 % 1013,9 hPa 0,0 l/m 0,0 km/h NO 8,1 C 11,4 C 0,0 km/h
11.07.2015 05:00 10,9 C 80 % 1013,8 hPa 0,0 l/m 0,0 km/h O-SO 7,6 C 10,9 C 0,0 km/h
11.07.2015 06:00 12,8 C 79 % 1013,2 hPa 0,0 l/m 0,0 km/h O-NO 9,2 C 12,8 C 0,0 km/h
11.07.2015 07:00 19,3 C 68 % 1014,0 hPa 0,0 l/m 0,0 km/h O-NO 13,2 C 19,3 C 0,0 km/h
11.07.2015 08:00 27,1 C 46 % 1013,9 hPa 0,0 l/m 0,0 km/h S 14,5 C 27,1 C 0,0 km/h
11.07.2015 09:00 31,2 C 38 % 1014,1 hPa 0,0 l/m 10,4 km/h W 15,2 C 31,0 C 5,8 km/h
11.07.2015 10:00 30,6 C 38 % 1014,0 hPa 0,0 l/m 21,4 km/h W-SW 14,6 C 29,9 C 11,9 km/h
11.07.2015 11:00 31,1 C 37 % 1013,9 hPa 0,0 l/m 22,0 km/h W 14,7 C 30,5 C 12,2 km/h
11.07.2015 12:00 31,9 C 36 % 1014,0 hPa 0,0 l/m 14,9 km/h S-SW 14,9 C 31,7 C 8,3 km/h
11.07.2015 13:00 34,4 C 31 % 1013,4 hPa 0,0 l/m 21,4 km/h W-NW 14,8 C 34,4 C 11,9 km/h
11.07.2015 14:00 34,1 C 25 % 1013,9 hPa 0,0 l/m 21,4 km/h W 11,2 C 34,1 C 11,9 km/h
11.07.2015 15:00 34,2 C 25 % 1013,9 hPa 0,0 l/m 5,8 km/h W-NW 11,3 C 34,2 C 3,2 km/h
11.07.2015 16:00 34,9 C 25 % 1014,3 hPa 0,0 l/m 22,0 km/h W-NW 11,9 C 34,9 C 12,2 km/h
11.07.2015 17:00 36,1 C 24 % 1014,1 hPa 0,0 l/m 11,0 km/h NW 12,3 C 36,1 C 6,1 km/h
11.07.2015 18:00 35,9 C 24 % 1013,9 hPa 0,0 l/m 6,5 km/h W-NW 12,1 C 35,9 C 3,6 km/h
11.07.2015 19:00 31,2 C 27 % 1014,1 hPa 0,0 l/m 2,6 km/h N-NO 10,0 C 31,2 C 1,4 km/h
11.07.2015 20:00 27,9 C 33 % 1014,4 hPa 0,0 l/m 0,0 km/h N-NO 10,1 C 27,9 C 0,0 km/h
11.07.2015 21:00 22,6 C 47 % 1015,0 hPa 0,0 l/m 0,0 km/h O-NO 10,7 C 22,6 C 0,0 km/h
11.07.2015 22:00 20,0 C 53 % 1015,5 hPa 0,0 l/m 0,0 km/h O-NO 10,1 C 20,0 C 0,0 km/h
11.07.2015 23:00 18,4 C 59 % 1015,9 hPa 0,0 l/m 0,0 km/h O-NO 10,2 C 18,4 C 0,0 km/h
12.07.2015 00:00 16,6 C 62 % 1015,9 hPa 0,0 l/m 0,0 km/h O-NO 9,3 C 16,6 C 0,0 km/h
12.07.2015 01:00 15,7 C 67 % 1016,3 hPa 0,0 l/m 0,0 km/h SO 9,6 C 15,7 C 0,0 km/h
12.07.2015 02:00 15,1 C 69 % 1016,2 hPa 0,0 l/m 0,0 km/h SO 9,5 C 15,1 C 0,0 km/h
12.07.2015 03:00 14,4 C 72 % 1016,3 hPa 0,0 l/m 0,0 km/h SO 9,4 C 14,4 C 0,0 km/h
12.07.2015 04:00 14,0 C 72 % 1016,4 hPa 0,0 l/m 0,0 km/h O-SO 9,0 C 14,0 C 0,0 km/h
12.07.2015 05:00 14,0 C 73 % 1016,7 hPa 0,0 l/m 0,0 km/h S-SO 9,2 C 14,0 C 0,0 km/h
12.07.2015 06:00 14,6 C 74 % 1017,0 hPa 0,0 l/m 0,0 km/h S-SO 10,0 C 14,6 C 0,0 km/h
12.07.2015 07:00 20,1 C 68 % 1017,1 hPa 0,0 l/m 0,0 km/h S-SO 14,0 C 20,1 C 0,0 km/h
12.07.2015 08:00 28,3 C 45 % 1017,1 hPa 0,0 l/m 3,2 km/h W 15,2 C 28,3 C 1,8 km/h
12.07.2015 09:00 30,4 C 37 % 1017,1 hPa 0,0 l/m 0,0 km/h N-NO 14,0 C 30,4 C 0,0 km/h
12.07.2015 10:00 30,6 C 36 % 1016,9 hPa 0,0 l/m 0,0 km/h NW 13,8 C 30,6 C 0,0 km/h
12.07.2015 11:00 30,5 C 37 % 1016,6 hPa 0,0 l/m 5,2 km/h N-NW 14,1 C 30,5 C 2,9 km/h
12.07.2015 12:00 29,9 C 37 % 1016,4 hPa 0,0 l/m 7,8 km/h NW 13,6 C 29,8 C 4,3 km/h
12.07.2015 13:00 30,9 C 38 % 1015,9 hPa 0,0 l/m 1,9 km/h NO 14,9 C 30,9 C 1,1 km/h
12.07.2015 14:00 32,1 C 36 % 1015,5 hPa 0,0 l/m 0,0 km/h W-NW 15,1 C 32,1 C 0,0 km/h
12.07.2015 15:00 31,6 C 36 % 1015,1 hPa 0,0 l/m 4,5 km/h NO 14,7 C 31,6 C 2,5 km/h
12.07.2015 16:00 30,2 C 37 % 1015,0 hPa 0,0 l/m 0,0 km/h NO 13,9 C 30,2 C 0,0 km/h
12.07.2015 17:00 32,4 C 33 % 1015,1 hPa 0,0 l/m 0,0 km/h NO 14,0 C 32,4 C 0,0 km/h
12.07.2015 18:00 27,1 C 38 % 1015,5 hPa 0,0 l/m 18,1 km/h NO 11,5 C 25,5 C 10,1 km/h
12.07.2015 19:00 25,1 C 40 % 1015,9 hPa 0,0 l/m 19,4 km/h N-NO 10,5 C 22,9 C 10,8 km/h
12.07.2015 20:00 23,6 C 45 % 1016,7 hPa 0,0 l/m 18,8 km/h N-NO 11,0 C 21,0 C 10,4 km/h
12.07.2015 21:00 22,2 C 49 % 1017,1 hPa 0,0 l/m 0,0 km/h N-NO 11,0 C 22,2 C 0,0 km/h
12.07.2015 22:00 21,1 C 52 % 1017,0 hPa 0,0 l/m 2,6 km/h N-NO 10,9 C 21,1 C 1,4 km/h
12.07.2015 23:00 20,5 C 55 % 1017,2 hPa 0,0 l/m 0,0 km/h SO 11,1 C 20,5 C 0,0 km/h
Min-Datum _ 10.07.15 07.07.15 07.07.15 - 06.07.15 - 10.07.15 10.07.15 06.07.15
_ Min-Zeit 05:51 16:51 19:51 - 00:51 - 05:51 05:51 00:51
Minimum _ 7,9 C 22 % 1005,6 hPa - 0,0 km/h - 5,2 C 7,9 C 0,0 km/h
Max-Datum _ 07.07.15 10.07.15 10.07.15 07.07.15 10.07.15 - 07.07.15 07.07.15 10.07.15
_ Max-Zeit 16:51 06:51 07:51 22:51 18:51 - 12:51 16:51 18:51
Maximum _ 40,3 C 84 % 1020,8 hPa 0,4 l/m 25,3 km/h
W-NW
- 20,3 C 40,3 C 14,0 km/h
W-NW
Durchschnitt _ 23,5 C 54 % 1015,4 hPa #0,4 l/m 4,0 km/h W-NW 12,7 C 23,4 C 2,2 km/h
www.sexauwetter.de